Time;durP1;ratioP1;P1;durP2;ratioP2;P2;SDS_P1;SDS_P2;PMS_P1;PMS_P2;Temp;Humidity;BMP_temperature;BMP_pressure;BME280_temperature;BME280_humidity;BME280_pressure;Samples;Min_cycle;Max_cycle;Signal;HPM_P1;HPM_P2
2021/11/23 00:02:24;;;;;;;61.67;36.67;;;;;;;10.35;100.00;101098.72;4938180;29;20038;-70
2021/11/23 00:05:12;;;;;;;67.15;37.53;;;;;;;9.95;100.00;101095.63;4938600;29;20054;-70
2021/11/23 00:07:57;;;;;;;66.38;38.67;;;;;;;10.47;100.00;101100.34;4923422;29;20446;-70
2021/11/23 00:10:44;;;;;;;63.50;39.45;;;;;;;10.09;100.00;101112.06;4937965;29;20406;-71
2021/11/23 00:13:30;;;;;;;64.45;38.38;;;;;;;10.48;100.00;101107.34;4923595;29;20068;-70
2021/11/23 00:16:16;;;;;;;58.28;38.28;;;;;;;10.44;100.00;101103.88;4938338;29;20114;-70
2021/11/23 00:19:02;;;;;;;60.83;39.75;;;;;;;10.50;100.00;101101.19;4937778;29;20465;-70
2021/11/23 00:21:48;;;;;;;62.40;40.08;;;;;;;10.34;100.00;101098.75;4937360;29;20032;-70
2021/11/23 00:24:35;;;;;;;64.25;38.67;;;;;;;10.54;100.00;101115.13;4938087;29;20395;-70
2021/11/23 00:27:20;;;;;;;59.08;37.78;;;;;;;10.80;100.00;101107.84;4937398;29;20028;-70
2021/11/23 00:30:06;;;;;;;63.83;39.78;;;;;;;10.70;100.00;101112.31;4923768;29;20183;-71
2021/11/23 00:32:53;;;;;;;62.80;38.65;;;;;;;10.96;100.00;101123.34;4937225;29;20024;-70
2021/11/23 00:35:39;;;;;;;60.60;39.05;;;;;;;11.40;100.00;101127.97;4937793;29;20031;-70
2021/11/23 00:38:25;;;;;;;62.83;38.67;;;;;;;11.23;100.00;101120.38;4936372;29;20059;-70
2021/11/23 00:41:14;;;;;;;60.20;38.65;;;;;;;11.22;100.00;101120.38;4937698;29;20444;-70
2021/11/23 00:43:59;;;;;;;61.08;38.63;;;;;;;11.20;100.00;101133.50;4937158;29;20039;-70
2021/11/23 00:46:46;;;;;;;59.08;37.92;;;;;;;11.07;100.00;101131.06;4937408;29;20078;-70
2021/11/23 00:49:32;;;;;;;57.92;38.53;;;;;;;11.05;100.00;101136.31;4923881;29;20027;-69
2021/11/23 00:52:18;;;;;;;58.28;38.65;;;;;;;11.48;100.00;101133.97;4923138;29;20054;-69
2021/11/23 00:55:06;;;;;;;62.03;39.53;;;;;;;11.60;100.00;101133.81;4923691;29;20425;-70
2021/11/23 00:57:52;;;;;;;57.03;37.92;;;;;;;11.41;100.00;101135.81;4937207;29;20082;-69
2021/11/23 01:00:38;;;;;;;57.40;38.90;;;;;;;11.35;100.00;101138.56;4937735;29;20024;-70
2021/11/23 01:03:23;;;;;;;58.78;37.60;;;;;;;11.36;100.00;101142.03;4936974;29;20123;-71
2021/11/23 01:06:09;;;;;;;56.63;36.90;;;;;;;10.88;100.00;101145.31;4937474;29;20037;-70
2021/11/23 01:08:55;;;;;;;56.65;36.85;;;;;;;11.20;100.00;101141.38;4936819;29;20032;-70
2021/11/23 01:11:41;;;;;;;55.42;36.70;;;;;;;10.96;100.00;101144.31;4937127;29;20054;-70
2021/11/23 01:14:27;;;;;;;57.80;37.25;;;;;;;11.14;100.00;101136.22;4936332;29;20031;-70
2021/11/23 01:17:14;;;;;;;57.47;37.13;;;;;;;10.99;100.00;101138.16;4936891;29;20028;-69
2021/11/23 01:20:01;;;;;;;55.10;36.05;;;;;;;11.06;100.00;101132.84;4939179;29;20099;-70
2021/11/23 01:54:25;;;;;;;61.67;38.33;;;;;;;10.78;100.00;101143.66;5875555;23;20023;-69
2021/11/23 01:57:11;;;;;;;57.92;39.40;;;;;;;10.64;100.00;101153.44;4920552;29;20100;-70
2021/11/23 01:59:57;;;;;;;58.17;38.55;;;;;;;10.45;100.00;101152.75;4921103;29;20044;-69
2021/11/23 02:02:45;;;;;;;58.10;39.67;;;;;;;10.82;100.00;101150.59;4919608;29;20439;-69
2021/11/23 02:05:31;;;;;;;54.13;38.40;;;;;;;10.68;100.00;101148.13;4919815;29;20039;-70
2021/11/23 02:08:17;;;;;;;59.13;38.15;;;;;;;10.73;100.00;101148.94;4919803;29;20426;-70
2021/11/23 02:11:03;;;;;;;55.70;38.17;;;;;;;10.76;100.00;101141.06;4906444;29;20344;-69
2021/11/23 02:13:49;;;;;;;59.90;39.45;;;;;;;11.01;100.00;101152.97;4907022;29;20039;-70
2021/11/23 02:16:35;;;;;;;65.13;41.30;;;;;;;10.94;100.00;101153.97;4919873;29;20043;-69
2021/11/23 02:19:22;;;;;;;65.10;40.55;;;;;;;11.03;100.00;101160.84;4919869;29;20115;-69
2021/11/23 02:22:07;;;;;;;62.58;40.50;;;;;;;10.93;100.00;101161.84;4907520;29;20032;-69
2021/11/23 02:24:53;;;;;;;60.17;38.90;;;;;;;10.85;100.00;101169.78;4919730;29;20032;-70
2021/11/23 02:27:39;;;;;;;58.88;40.08;;;;;;;11.29;100.00;101175.34;4920107;29;20028;-70
2021/11/23 02:30:25;;;;;;;65.78;40.20;;;;;;;11.11;100.00;101169.47;4920761;29;20498;-69
2021/11/23 02:33:13;;;;;;;66.82;39.13;;;;;;;10.92;100.00;101166.22;4919846;29;20407;-69
2021/11/23 02:36:01;;;;;;;64.32;40.00;;;;;;;10.83;100.00;101166.31;4906145;29;20434;-70
2021/11/23 02:38:49;;;;;;;66.93;42.60;;;;;;;11.01;100.00;101165.25;4919435;29;20028;-70
2021/11/23 02:41:38;;;;;;;64.35;40.20;;;;;;;10.65;100.00;101165.66;4919449;29;20560;-70
2021/11/23 02:44:24;;;;;;;61.85;40.08;;;;;;;11.10;100.00;101165.13;4905143;29;20043;-70
2021/11/23 02:47:09;;;;;;;66.10;39.80;;;;;;;10.82;100.00;101177.69;4919091;29;20403;-70
2021/11/23 02:49:55;;;;;;;61.35;38.35;;;;;;;10.58;100.00;101179.69;4906868;29;20050;-70
2021/11/23 02:52:47;;;;;;;59.10;38.00;;;;;;;10.94;100.00;101185.41;4919318;29;20047;-69
2021/11/23 02:55:35;;;;;;;64.43;39.03;;;;;;;10.89;100.00;101184.59;4918919;29;20048;-69
2021/11/23 02:58:21;;;;;;;60.05;37.90;;;;;;;10.34;100.00;101187.78;4905779;29;20028;-70
2021/11/23 03:01:09;;;;;;;61.75;40.22;;;;;;;10.65;100.00;101192.72;4919700;29;20024;-70
2021/11/23 03:03:55;;;;;;;61.72;39.28;;;;;;;11.01;100.00;101192.31;4918898;29;20027;-70
2021/11/23 03:06:43;;;;;;;63.88;40.28;;;;;;;11.11;100.00;101196.56;4918099;29;20115;-69
2021/11/23 03:09:29;;;;;;;65.65;39.67;;;;;;;11.26;100.00;101201.63;4920031;29;20030;-70
2021/11/23 03:12:26;;;;;;;60.58;39.03;;;;;;;10.88;100.00;101192.50;4919474;29;20110;-70
2021/11/23 03:15:12;;;;;;;61.00;39.83;;;;;;;11.14;100.00;101196.53;4919072;29;20020;-70
2021/11/23 03:17:58;;;;;;;59.08;39.22;;;;;;;11.40;100.00;101196.19;4918809;29;20032;-70
2021/11/23 03:20:45;;;;;;;57.13;38.03;;;;;;;11.42;100.00;101195.31;4918210;29;20046;-70
2021/11/23 03:23:31;;;;;;;58.65;38.40;;;;;;;10.94;100.00;101205.50;4920340;29;20114;-70
2021/11/23 03:26:17;;;;;;;70.03;40.33;;;;;;;10.97;100.00;101206.34;4918173;29;20032;-69
2021/11/23 03:29:02;;;;;;;70.90;42.10;;;;;;;11.32;100.00;101206.78;4920338;29;20487;-70
2021/11/23 03:31:48;;;;;;;61.55;38.72;;;;;;;10.63;100.00;101209.34;4918098;29;20404;-70
2021/11/23 03:34:38;;;;;;;61.30;40.08;;;;;;;10.48;100.00;101209.50;4917837;29;20064;-70
2021/11/23 03:37:26;;;;;;;61.67;40.20;;;;;;;11.02;100.00;101206.28;4919102;29;20060;-70
2021/11/23 03:40:12;;;;;;;64.22;40.42;;;;;;;10.58;100.00;101209.41;4917810;29;20032;-69
2021/11/23 03:42:58;;;;;;;70.10;42.05;;;;;;;10.90;100.00;101207.31;4917529;29;20427;-69
2021/11/23 03:45:44;;;;;;;69.38;41.45;;;;;;;11.03;100.00;101222.00;4918826;29;20036;-69
2021/11/23 03:48:30;;;;;;;68.90;41.35;;;;;;;10.94;100.00;101236.97;4918514;29;20028;-71
2021/11/23 03:51:16;;;;;;;66.03;41.25;;;;;;;11.23;100.00;101232.25;4919053;29;20343;-69
2021/11/23 03:54:01;;;;;;;67.28;39.80;;;;;;;10.79;100.00;101226.63;4920088;29;20530;-69
2021/11/23 03:56:48;;;;;;;66.65;41.22;;;;;;;10.90;100.00;101227.41;4898754;29;20072;-69
2021/11/23 03:59:33;;;;;;;71.78;43.38;;;;;;;10.54;100.00;101212.06;4885868;29;20451;-69
2021/11/23 04:02:22;;;;;;;70.95;41.72;;;;;;;10.68;100.00;101223.28;4899960;29;20442;-68
2021/11/23 04:05:09;;;;;;;67.70;42.90;;;;;;;10.70;100.00;101226.75;4899823;29;20417;-69
2021/11/23 04:07:56;;;;;;;65.93;41.88;;;;;;;10.31;100.00;101230.59;4899859;29;20475;-70
2021/11/23 04:10:42;;;;;;;65.93;42.97;;;;;;;10.74;100.00;101231.94;4885658;29;20024;-70
2021/11/23 04:13:28;;;;;;;68.07;43.35;;;;;;;10.99;100.00;101233.44;4898795;29;20092;-70
2021/11/23 04:16:16;;;;;;;65.30;43.25;;;;;;;11.33;100.00;101226.03;4900287;29;20523;-69
2021/11/23 04:19:02;;;;;;;67.32;42.15;;;;;;;11.56;100.00;101227.47;4899495;29;20120;-69
2021/11/23 04:21:48;;;;;;;64.07;42.35;;;;;;;11.22;100.00;101233.16;4899240;29;20032;-70
2021/11/23 04:24:35;;;;;;;63.65;41.92;;;;;;;10.90;100.00;101232.66;4898930;29;20033;-70
2021/11/23 04:27:20;;;;;;;62.83;41.17;;;;;;;10.65;100.00;101233.78;4886460;29;20033;-70
2021/11/23 04:30:10;;;;;;;64.68;40.65;;;;;;;10.63;100.00;101225.06;4887077;29;20372;-69
2021/11/23 04:32:56;;;;;;;63.70;40.83;;;;;;;11.08;100.00;101230.69;4898750;29;20418;-69
2021/11/23 04:35:43;;;;;;;62.97;41.78;;;;;;;11.26;100.00;101227.88;4884563;29;20054;-70
2021/11/23 04:38:29;;;;;;;64.63;41.60;;;;;;;11.09;100.00;101232.41;4897927;29;20044;-68
2021/11/23 04:41:15;;;;;;;63.35;41.35;;;;;;;10.85;100.00;101232.69;4899474;29;20039;-70
2021/11/23 04:44:00;;;;;;;61.70;41.72;;;;;;;11.25;100.00;101233.97;4885290;29;20051;-69
2021/11/23 04:46:46;;;;;;;68.55;43.03;;;;;;;11.21;100.00;101232.28;4884770;29;20029;-70
2021/11/23 04:49:32;;;;;;;66.22;42.10;;;;;;;10.90;100.00;101244.00;4885175;29;20036;-71
2021/11/23 04:52:18;;;;;;;68.28;43.95;;;;;;;10.95;100.00;101251.81;4884548;29;20039;-70
2021/11/23 04:55:04;;;;;;;61.47;41.83;;;;;;;11.06;100.00;101253.47;4890511;29;20059;-69
2021/11/23 04:57:50;;;;;;;60.60;40.78;;;;;;;11.34;100.00;101248.75;4905654;29;20051;-69
2021/11/23 05:00:36;;;;;;;67.72;43.38;;;;;;;11.23;100.00;101256.75;4916953;29;20070;-70
2021/11/23 05:03:22;;;;;;;66.20;41.42;;;;;;;11.50;100.00;101260.78;4918474;29;20028;-70
2021/11/23 05:06:07;;;;;;;67.55;41.75;;;;;;;11.29;100.00;101264.53;4905149;29;20095;-69
2021/11/23 05:08:53;;;;;;;65.10;43.13;;;;;;;11.19;100.00;101267.28;4917850;29;20024;-69
2021/11/23 05:11:42;;;;;;;65.70;42.72;;;;;;;10.90;100.00;101267.63;4903384;29;20328;-70
2021/11/23 05:14:28;;;;;;;74.03;45.22;;;;;;;10.82;100.00;101261.56;4917827;29;20031;-70
2021/11/23 05:17:14;;;;;;;72.05;45.78;;;;;;;10.63;100.00;101262.63;4918960;29;20028;-70
2021/11/23 05:20:00;;;;;;;69.63;44.00;;;;;;;10.86;100.00;101275.50;4903989;29;20032;-71
2021/11/23 05:22:46;;;;;;;67.68;44.92;;;;;;;11.02;100.00;101279.72;4917387;29;20122;-70
2021/11/23 05:25:31;;;;;;;72.78;46.40;;;;;;;11.02;100.00;101290.19;4917586;29;20031;-70
2021/11/23 05:28:17;;;;;;;69.60;44.88;;;;;;;11.24;100.00;101284.72;4917960;29;20032;-70
2021/11/23 05:31:03;;;;;;;71.32;45.47;;;;;;;10.58;100.00;101301.09;4916767;29;20142;-71
2021/11/23 05:33:48;;;;;;;75.75;44.20;;;;;;;10.85;100.00;101305.22;4917956;29;20032;-70
2021/11/23 05:36:34;;;;;;;69.55;45.40;;;;;;;11.15;100.00;101312.78;4916828;29;20031;-71
2021/11/23 05:39:20;;;;;;;75.32;47.22;;;;;;;11.11;100.00;101316.31;4916606;29;20024;-70
2021/11/23 05:42:06;;;;;;;73.90;46.10;;;;;;;10.81;100.00;101319.25;4916735;29;20035;-71
2021/11/23 05:44:52;;;;;;;74.55;45.90;;;;;;;10.83;100.00;101328.84;4917562;29;20112;-70
2021/11/23 05:47:38;;;;;;;72.18;46.45;;;;;;;11.34;100.00;101323.09;4916749;29;20391;-72
2021/11/23 05:50:24;;;;;;;74.82;45.97;;;;;;;11.09;100.00;101325.97;4903560;29;20111;-70
2021/11/23 05:53:10;;;;;;;77.05;46.70;;;;;;;10.86;100.00;101336.69;4918425;29;20447;-71
2021/11/23 05:55:55;;;;;;;74.82;46.47;;;;;;;11.27;100.00;101333.63;4917155;29;20052;-70
2021/11/23 05:58:41;;;;;;;73.20;45.70;;;;;;;11.15;100.00;101342.50;4903393;29;20031;-71
2021/11/23 06:01:27;;;;;;;72.68;45.35;;;;;;;10.99;100.00;101342.66;4916425;29;20032;-71
2021/11/23 06:04:13;;;;;;;70.10;44.55;;;;;;;11.38;100.00;101345.78;4918147;29;20038;-70
2021/11/23 06:06:59;;;;;;;72.45;46.08;;;;;;;11.01;100.00;101360.13;4920874;29;20374;-70
2021/11/23 06:09:44;;;;;;;74.45;45.15;;;;;;;10.86;100.00;101369.88;4919998;29;20032;-70
2021/11/23 06:12:31;;;;;;;70.72;45.08;;;;;;;11.49;100.00;101367.50;4921427;29;20087;-70
2021/11/23 06:15:18;;;;;;;74.50;44.28;;;;;;;11.26;100.00;101363.38;4920697;29;20467;-70
2021/11/23 06:18:07;;;;;;;73.63;45.10;;;;;;;11.57;100.00;101372.69;4920049;29;20111;-70
2021/11/23 06:20:54;;;;;;;71.47;44.30;;;;;;;11.45;100.00;101367.56;4907777;29;20099;-70
2021/11/23 06:23:40;;;;;;;68.47;45.45;;;;;;;11.51;100.00;101368.38;4921140;29;20024;-71
2021/11/23 06:26:26;;;;;;;66.63;44.67;;;;;;;11.67;100.00;101379.59;4906055;29;20442;-70
2021/11/23 06:29:12;;;;;;;76.57;45.97;;;;;;;11.86;100.00;101376.72;4908176;29;20036;-70
2021/11/23 06:31:58;;;;;;;74.18;47.47;;;;;;;11.62;100.00;101386.66;4920485;29;20115;-70
2021/11/23 06:34:44;;;;;;;66.95;43.70;;;;;;;11.62;100.00;101387.50;4907689;29;20028;-70
2021/11/23 06:37:30;;;;;;;71.57;45.67;;;;;;;11.74;100.00;101379.50;4920525;29;20039;-71
2021/11/23 06:40:16;;;;;;;72.10;46.22;;;;;;;10.97;100.00;101382.00;4919124;29;20179;-69
2021/11/23 06:43:02;;;;;;;67.68;44.90;;;;;;;11.15;100.00;101392.34;4920221;29;20036;-70
2021/11/23 06:45:47;;;;;;;70.90;45.65;;;;;;;11.63;100.00;101399.75;4919569;29;20324;-70
2021/11/23 06:48:33;;;;;;;78.60;45.30;;;;;;;11.19;100.00;101409.78;4919730;29;20099;-69
2021/11/23 06:51:19;;;;;;;76.85;46.78;;;;;;;11.54;100.00;101399.81;4906247;29;20151;-71
2021/11/23 06:54:05;;;;;;;71.78;46.00;;;;;;;11.53;100.00;101403.31;4920048;29;20051;-70
2021/11/23 06:56:54;;;;;;;73.07;46.15;;;;;;;11.38;100.00;101410.50;4919791;29;20048;-70
2021/11/23 06:59:40;;;;;;;72.72;46.00;;;;;;;11.36;100.00;101412.25;4906464;29;20107;-70
2021/11/23 07:02:26;;;;;;;79.32;47.45;;;;;;;11.19;100.00;101422.03;4905843;29;20039;-70
2021/11/23 07:05:13;;;;;;;72.25;45.88;;;;;;;11.36;100.00;101409.63;4919939;29;20032;-71
2021/11/23 07:07:59;;;;;;;74.63;45.13;;;;;;;11.61;100.00;101414.63;4905365;29;20035;-72
2021/11/23 07:10:45;;;;;;;81.60;49.03;;;;;;;11.54;100.00;101426.03;4920517;29;20035;-70
2021/11/23 07:13:30;;;;;;;73.25;46.17;;;;;;;11.38;100.00;101431.47;4918406;29;20410;-70
2021/11/23 07:16:16;;;;;;;78.18;47.15;;;;;;;11.40;100.00;101429.69;4918131;29;20063;-70
2021/11/23 07:19:02;;;;;;;73.80;46.85;;;;;;;11.57;100.00;101425.16;4919928;29;20040;-70
2021/11/23 07:21:48;;;;;;;77.18;47.95;;;;;;;11.45;100.00;101430.53;4905683;29;20032;-70
2021/11/23 07:24:34;;;;;;;73.97;46.40;;;;;;;11.44;100.00;101445.41;4918714;29;20020;-70
2021/11/23 07:27:20;;;;;;;77.45;46.92;;;;;;;11.52;100.00;101440.94;4919447;29;20031;-68
2021/11/23 07:30:07;;;;;;;81.15;48.15;;;;;;;11.63;100.00;101441.75;4905356;29;20115;-69
2021/11/23 07:32:53;;;;;;;72.40;45.85;;;;;;;11.35;100.00;101444.63;4906713;29;20042;-69
2021/11/23 07:35:38;;;;;;;74.78;46.30;;;;;;;11.47;100.00;101445.38;4904950;29;20028;-69
2021/11/23 07:38:24;;;;;;;73.57;47.13;;;;;;;11.44;100.00;101440.16;4919252;29;20036;-70
2021/11/23 07:41:10;;;;;;;75.30;47.85;;;;;;;11.60;100.00;101443.47;4919614;29;20060;-71
2021/11/23 07:43:57;;;;;;;72.75;47.33;;;;;;;11.30;100.00;101451.66;4919150;29;20032;-70
2021/11/23 07:46:43;;;;;;;77.18;48.15;;;;;;;11.19;100.00;101456.13;4919312;29;20446;-69
2021/11/23 07:49:28;;;;;;;71.93;45.75;;;;;;;11.52;100.00;101456.69;4919181;29;20059;-69
2021/11/23 07:52:16;;;;;;;66.20;43.72;;;;;;;11.28;100.00;101454.28;4919840;29;20443;-69
2021/11/23 07:55:03;;;;;;;74.68;47.88;;;;;;;11.15;100.00;101459.66;4905571;29;20052;-69
2021/11/23 07:57:49;;;;;;;70.43;45.28;;;;;;;11.32;100.00;101466.50;4918247;29;20028;-70
2021/11/23 08:00:34;;;;;;;80.38;47.85;;;;;;;11.42;100.00;101469.91;4919073;29;20032;-70
2021/11/23 08:03:20;;;;;;;73.85;46.78;;;;;;;11.26;100.00;101473.56;4918795;29;20047;-69
2021/11/23 08:06:07;;;;;;;76.13;49.05;;;;;;;11.39;100.00;101483.94;4917985;29;20032;-70
2021/11/23 08:08:53;;;;;;;72.82;46.42;;;;;;;11.62;100.00;101487.22;4917331;29;20080;-70
2021/11/23 08:11:39;;;;;;;78.97;48.28;;;;;;;11.33;100.00;101494.47;4917724;29;20096;-71
2021/11/23 08:14:26;;;;;;;77.05;47.17;;;;;;;11.45;100.00;101488.28;4903991;29;20036;-70
2021/11/23 08:17:12;;;;;;;72.50;47.42;;;;;;;11.80;100.00;101497.56;4905625;29;20375;-71
2021/11/23 08:19:58;;;;;;;81.43;48.45;;;;;;;11.67;100.00;101506.47;4918499;29;20032;-69
2021/11/23 08:22:45;;;;;;;82.68;48.20;;;;;;;11.74;100.00;101518.63;4919146;29;20032;-70
2021/11/23 08:25:32;;;;;;;85.63;50.13;;;;;;;11.36;100.00;101525.06;4918625;29;20147;-69
2021/11/23 08:28:19;;;;;;;79.93;48.47;;;;;;;11.57;100.00;101536.25;4905219;29;20028;-70
2021/11/23 08:31:04;;;;;;;78.00;50.47;;;;;;;11.46;100.00;101530.25;4917318;29;20032;-71
2021/11/23 08:33:50;;;;;;;77.78;49.33;;;;;;;11.46;100.00;101538.13;4917732;29;20040;-70
2021/11/23 08:36:36;;;;;;;71.90;47.53;;;;;;;11.40;100.00;101548.63;4918996;29;20036;-70
2021/11/23 08:39:22;;;;;;;78.00;48.85;;;;;;;11.26;100.00;101553.13;4918295;29;20039;-71
2021/11/23 08:42:08;;;;;;;70.07;45.75;;;;;;;11.45;100.00;101556.50;4918697;29;20037;-71
2021/11/23 08:44:55;;;;;;;82.10;48.50;;;;;;;11.22;100.00;101555.78;4903578;29;20098;-71
2021/11/23 08:47:41;;;;;;;73.43;47.13;;;;;;;11.47;100.00;101549.47;4917139;29;20043;-70
2021/11/23 08:50:27;;;;;;;77.68;50.05;;;;;;;11.15;100.00;101543.56;4918375;29;20031;-70
2021/11/23 08:53:13;;;;;;;80.47;49.85;;;;;;;11.51;100.00;101545.94;4918141;29;20099;-70
2021/11/23 08:55:59;;;;;;;76.78;48.38;;;;;;;11.24;100.00;101552.25;4917749;29;20052;-70
2021/11/23 08:58:48;;;;;;;78.63;48.50;;;;;;;11.36;100.00;101554.78;4918391;29;20042;-72
2021/11/23 09:01:34;;;;;;;83.85;51.70;;;;;;;11.01;100.00;101559.38;4916936;29;20032;-71
2021/11/23 09:04:20;;;;;;;82.63;51.17;;;;;;;11.14;100.00;101563.72;4904171;29;20031;-70
2021/11/23 09:07:08;;;;;;;88.15;52.65;;;;;;;11.43;100.00;101577.50;4904721;29;20067;-71
2021/11/23 09:09:54;;;;;;;76.75;49.28;;;;;;;11.41;100.00;101573.13;4918939;29;20111;-70
2021/11/23 09:12:39;;;;;;;82.35;50.40;;;;;;;11.59;100.00;101571.25;4904659;29;20039;-69
2021/11/23 09:15:26;;;;;;;93.50;57.03;;;;;;;11.42;100.00;101567.88;4916596;29;20374;-71
2021/11/23 09:18:16;;;;;;;86.35;53.70;;;;;;;11.17;100.00;101582.03;4919159;29;20032;-71
2021/11/23 09:21:01;;;;;;;87.85;52.75;;;;;;;11.24;100.00;101570.63;4917577;29;20031;-71
2021/11/23 09:23:47;;;;;;;86.65;52.58;;;;;;;11.49;100.00;101568.72;4916947;29;20070;-70
2021/11/23 09:26:33;;;;;;;91.07;55.30;;;;;;;11.59;100.00;101571.25;4916984;29;20032;-70
2021/11/23 09:29:20;;;;;;;89.13;54.75;;;;;;;11.56;100.00;101579.13;4903521;29;20036;-69
2021/11/23 09:32:07;;;;;;;84.63;53.22;;;;;;;11.74;100.00;101573.75;4918265;29;20518;-70
2021/11/23 09:34:53;;;;;;;95.22;55.78;;;;;;;11.37;100.00;101574.91;4917497;29;20036;-72
2021/11/23 09:37:40;;;;;;;93.85;55.97;;;;;;;11.57;100.00;101566.91;4917816;29;20035;-71
2021/11/23 09:40:29;;;;;;;86.15;54.60;;;;;;;11.22;100.00;101572.41;4905921;29;20040;-71
2021/11/23 09:43:14;;;;;;;91.18;54.40;;;;;;;11.03;100.00;101573.38;4921503;29;20047;-71
2021/11/23 09:46:00;;;;;;;86.63;55.00;;;;;;;11.46;100.00;101577.47;4921993;29;20107;-71
2021/11/23 09:48:46;;;;;;;85.97;53.50;;;;;;;11.81;100.00;101578.06;4921962;29;20340;-71
2021/11/23 09:51:33;;;;;;;94.50;55.83;;;;;;;11.67;100.00;101582.59;4920148;29;20062;-70
2021/11/23 09:54:19;;;;;;;85.93;53.58;;;;;;;11.45;100.00;101567.00;4920636;29;20431;-70
2021/11/23 09:57:05;;;;;;;79.38;50.22;;;;;;;11.37;100.00;101585.38;4920827;29;20462;-70
2021/11/23 09:59:51;;;;;;;83.38;52.78;;;;;;;11.45;100.00;101580.97;4907562;29;20028;-71
2021/11/23 10:02:37;;;;;;;83.43;53.22;;;;;;;11.79;100.00;101585.09;4920950;29;20066;-72
2021/11/23 10:05:30;;;;;;;84.32;53.72;;;;;;;11.49;100.00;101582.69;4919808;29;20032;-71
2021/11/23 10:08:18;;;;;;;80.65;50.47;;;;;;;11.10;100.00;101579.47;4919800;29;20110;-70
2021/11/23 10:11:04;;;;;;;81.30;49.53;;;;;;;11.33;100.00;101585.44;4907191;29;20027;-71
2021/11/23 10:13:56;;;;;;;76.90;48.05;;;;;;;11.25;100.00;101580.22;4919661;29;20507;-71
2021/11/23 10:16:43;;;;;;;68.97;45.00;;;;;;;11.31;100.00;101582.81;4920160;29;20040;-71
2021/11/23 10:19:47;;;;;;;75.35;45.80;;;;;;;11.33;100.00;101583.66;4906458;29;20024;-70
2021/11/23 10:22:36;;;;;;;77.07;47.38;;;;;;;10.68;100.00;101577.91;4906693;29;20025;-71
2021/11/23 10:25:29;;;;;;;83.45;50.42;;;;;;;11.18;100.00;101583.78;4906320;29;20123;-70
2021/11/23 10:28:15;;;;;;;78.93;49.08;;;;;;;11.36;100.00;101582.78;4920843;29;20031;-71
2021/11/23 10:31:04;;;;;;;78.82;48.42;;;;;;;10.60;100.00;101584.09;4920881;29;20054;-71
2021/11/23 10:33:56;;;;;;;76.95;47.97;;;;;;;11.01;100.00;101575.13;4919940;29;20032;-70
2021/11/23 10:36:48;;;;;;;83.25;49.22;;;;;;;10.55;100.00;101586.72;4919474;29;20494;-71
2021/11/23 10:39:34;;;;;;;83.70;49.08;;;;;;;10.43;100.00;101578.00;4919197;29;20159;-71
2021/11/23 10:42:31;;;;;;;82.85;49.88;;;;;;;10.28;100.00;101584.16;4919194;29;20523;-70
2021/11/23 10:45:17;;;;;;;83.55;50.28;;;;;;;11.06;100.00;101585.59;4920108;29;20032;-71
2021/11/23 10:48:05;;;;;;;87.18;51.35;;;;;;;11.13;100.00;101587.31;4905842;29;20028;-70
2021/11/23 10:51:09;;;;;;;78.88;48.70;;;;;;;11.33;100.00;101582.81;4906442;29;20455;-70
2021/11/23 10:54:15;;;;;;;77.90;48.55;;;;;;;11.10;100.00;101584.72;4906525;29;20032;-69
2021/11/23 10:57:11;;;;;;;93.63;55.20;;;;;;;11.10;100.00;101582.09;4919741;29;20428;-72
2021/11/23 10:59:57;;;;;;;84.93;49.35;;;;;;;10.61;100.00;101588.44;4920459;29;20036;-70
2021/11/23 11:02:44;;;;;;;80.57;48.60;;;;;;;11.26;100.00;101594.22;4918878;29;20056;-71
2021/11/23 11:05:33;;;;;;;77.75;47.30;;;;;;;10.72;100.00;101595.38;4918370;29;20387;-69
2021/11/23 11:08:22;;;;;;;75.53;45.30;;;;;;;11.04;100.00;101588.22;4918222;29;20582;-70
2021/11/23 11:11:15;;;;;;;71.88;45.70;;;;;;;10.64;100.00;101591.91;4905878;29;20068;-69
2021/11/23 11:14:02;;;;;;;70.82;42.10;;;;;;;11.05;100.00;101596.97;4920261;29;20091;-70
2021/11/23 11:16:48;;;;;;;71.63;42.70;;;;;;;11.43;100.00;101589.72;4919110;29;20036;-70
2021/11/23 11:19:47;;;;;;;70.35;42.67;;;;;;;10.57;100.00;101597.19;4917979;29;20035;-71
2021/11/23 11:22:32;;;;;;;68.93;41.25;;;;;;;11.32;100.00;101597.69;4918069;29;20028;-70
2021/11/23 11:25:27;;;;;;;67.50;42.40;;;;;;;11.37;100.00;101609.00;4905968;29;20034;-70
2021/11/23 11:28:13;;;;;;;60.58;39.17;;;;;;;11.11;100.00;101600.44;4919161;29;20036;-70
2021/11/23 11:31:06;;;;;;;61.00;39.63;;;;;;;11.61;100.00;101619.38;4918926;29;20028;-71
2021/11/23 11:34:22;;;;;;;60.90;38.25;;;;;;;10.76;100.00;101610.22;4920706;29;20051;-69
2021/11/23 11:37:18;;;;;;;61.08;38.90;;;;;;;11.56;100.00;101613.25;4919579;29;20032;-70
2021/11/23 11:40:05;;;;;;;62.75;37.97;;;;;;;11.29;100.00;101607.31;4919755;29;20020;-70
2021/11/23 11:42:54;;;;;;;64.30;38.95;;;;;;;10.67;100.00;101605.00;4919273;29;20040;-70
2021/11/23 11:45:47;;;;;;;60.63;38.25;;;;;;;11.04;100.00;101609.22;4918513;29;20095;-70
2021/11/23 11:48:38;;;;;;;58.10;37.78;;;;;;;11.20;100.00;101605.63;4918262;29;20036;-71
2021/11/23 11:51:29;;;;;;;61.03;37.67;;;;;;;11.30;100.00;101614.31;4917943;29;20097;-70
2021/11/23 11:54:18;;;;;;;59.75;36.88;;;;;;;10.76;100.00;101615.44;4917387;29;20028;-71
2021/11/23 11:57:30;;;;;;;62.05;38.45;;;;;;;11.36;100.00;101617.75;4917582;29;20431;-70
2021/11/23 12:03:11;;;;;;;56.53;36.90;;;;;;;11.28;100.00;101622.19;4918618;29;20036;-71
2021/11/23 12:06:05;;;;;;;65.15;39.05;;;;;;;11.17;100.00;101618.75;4906551;29;20063;-71
2021/11/23 12:08:55;;;;;;;59.20;37.38;;;;;;;10.86;100.00;101619.81;4905595;29;20366;-69
2021/11/23 12:11:41;;;;;;;60.83;37.03;;;;;;;10.99;100.00;101623.22;4893342;29;20035;-69
2021/11/23 12:14:36;;;;;;;61.80;35.72;;;;;;;10.93;100.00;101624.13;4904673;29;20576;-70
2021/11/23 12:17:34;;;;;;;55.00;35.70;;;;;;;10.96;100.00;101620.59;4918131;29;20032;-70
2021/11/23 12:20:32;;;;;;;55.40;35.67;;;;;;;11.16;100.00;101617.00;4917589;29;20028;-70
2021/11/23 12:23:30;;;;;;;54.35;35.03;;;;;;;10.58;100.00;101612.91;4918845;29;20459;-69
2021/11/23 12:26:20;;;;;;;56.35;35.53;;;;;;;10.16;100.00;101620.84;4917776;29;20036;-69
2021/11/23 12:29:13;;;;;;;64.35;37.15;;;;;;;10.65;100.00;101624.25;4917806;29;20124;-68
2021/11/23 12:31:59;;;;;;;66.03;37.95;;;;;;;10.43;100.00;101630.41;4918282;29;20430;-70
2021/11/23 12:34:50;;;;;;;58.40;35.50;;;;;;;10.15;100.00;101637.44;4917931;29;20115;-68
2021/11/23 12:37:39;;;;;;;60.58;36.30;;;;;;;10.10;100.00;101642.69;4917522;29;20032;-68
2021/11/23 12:40:27;;;;;;;59.05;35.80;;;;;;;10.14;100.00;101643.56;4918518;29;20032;-68
2021/11/23 12:43:13;;;;;;;57.30;34.20;;;;;;;9.95;100.00;101652.25;4918981;29;20345;-69
2021/11/23 12:45:59;;;;;;;57.42;37.50;;;;;;;10.57;100.00;101657.47;4917619;29;20095;-69
2021/11/23 12:48:47;;;;;;;56.88;36.90;;;;;;;10.27;100.00;101655.75;4917220;29;20102;-68
2021/11/23 12:51:33;;;;;;;58.33;36.38;;;;;;;10.47;100.00;101655.72;4917467;29;20024;-68
2021/11/23 12:54:23;;;;;;;58.35;35.95;;;;;;;10.28;100.00;101654.88;4918888;29;20031;-68
2021/11/23 12:57:10;;;;;;;60.55;37.22;;;;;;;10.09;100.00;101666.28;4916843;29;20032;-68
2021/11/23 13:00:01;;;;;;;57.50;36.70;;;;;;;10.58;100.00;101665.31;4917194;29;20095;-68
2021/11/23 13:02:51;;;;;;;58.58;36.67;;;;;;;10.51;100.00;101670.56;4903045;29;20032;-68
2021/11/23 13:05:40;;;;;;;63.95;38.95;;;;;;;10.79;100.00;101673.13;4918487;29;20115;-68
2021/11/23 13:08:25;;;;;;;61.22;37.20;;;;;;;10.40;100.00;101678.44;4903618;29;20032;-68